Mertens, Texas
Current Conditions -  °F | °C
As of 7:55 AM on Friday 24 Oct 2014 (Local Time) from KINJ Reporting Station
Scattered Clouds Scattered Clouds  
Wind Chill: 61°   Ceiling: Unl
Heat Index: 61°   Visibility: 10mi
Dew Point: 51°   Wind: 7mph
Humidity: 70%   Direction: 130°SE
Pressure: 30.16"   Gusts: NA
Location:  32.06°N, 96.9°W
Report Text: KINJ 241255Z AUTO 13006KT 10SM SCT060 16/11 A3016 RMK AO2 T01620107
Loading
Personal Weather Stations






























Interactive Weather Map
Tropical Storm Tracking
New forecast layout! Learn more

10-Day Weather Forecast

Advertisements
Track Severe Weather on mobile